Startpagina
METAR-TAF:

METAR-TAF

Vliegvelden :

Luchthaven Vilnius

Vilnius, Litouwen

breedte: 54-38N, lengte: 025-06E, hoogte: 162 m

Actueel weer

Dit bericht is 30 minuten geleden gemaakt, om 12:50 UTC
Wind 14 kt uit het zuidzuidoosten, variërend tussen het oostzuidoosten en het zuiden
Temperatuur -2°C
Vochtigheid 63%
Druk 1028 hPa
Zicht 10 km of meer
geen wolken onder 1500 m en geen cumulonimbus

METAR: EYVI 221250Z 15014KT 120V180 CAVOK M02/M08 Q1028 R19/0///95 NOSIG

Tijdstip: 15:20 (13:20 UTC)

Verwachting

Dit bericht is 2 uur en het 16 minuten geleden gemaakt, om 11:04 UTC
Verwachting geldig van 22 om 12 UTC tot 23 om 12 UTC
Wind 16 kt uit het zuidoosten
Zicht: 9000 m

TAF: EYVI 221104Z 2212/2312 14016KT 9000 NSC

Waarnemingen en weersverwachtingen van meer dan 4000 vliegvelden (METAR en TAF).

De beschikbare stations zijn de gele en rode punten op de kaart.

Ga met uw muis naar het station om de naam te zien.

Klik dan om waarnemingen en weersverwachtingen te zien.

kaart wijzigen: klik op de groene knoppen met een zwart kruis om in te zoomen, op de groene knop met een streepje om uit te zoomen of op de groene pijlen voor aangrenzende kaarten.


METAR-TAF: